Time;durP1;ratioP1;P1;durP2;ratioP2;P2;SDS_P1;SDS_P2;PMS_P1;PMS_P2;Temp;Humidity;BMP_temperature;BMP_pressure;BME280_temperature;BME280_humidity;BME280_pressure;Samples;Min_cycle;Max_cycle;Signal;HPM_P1;HPM_P2
2023/09/29 00:00:15;;;;;;;2.90;2.70;;;;;;;;;;5056121;28;20367;-65
2023/09/29 00:02:42;;;;;;;3.17;2.97;;;;;;;;;;5055979;28;20200;-65
2023/09/29 00:05:15;;;;;;;2.90;2.70;;;;;;;;;;5055934;28;20212;-65
2023/09/29 00:07:43;;;;;;;2.70;2.50;;;;;;;;;;5056576;28;20223;-65
2023/09/29 00:10:13;;;;;;;2.90;2.70;;;;;;;;;;5056054;28;20212;-65
2023/09/29 00:12:42;;;;;;;3.15;2.83;;;;;;;;;;5055659;28;20211;-65
2023/09/29 00:15:10;;;;;;;2.97;2.78;;;;;;;;;;5056071;28;20226;-65
2023/09/29 00:17:38;;;;;;;3.60;3.20;;;;;;;;;;5055938;28;20213;-65
2023/09/29 00:20:12;;;;;;;3.00;2.80;;;;;;;;;;5056293;28;20287;-65
2023/09/29 00:22:41;;;;;;;3.13;2.92;;;;;;;;;;5056574;28;20280;-65
2023/09/29 00:25:09;;;;;;;3.22;3.03;;;;;;;;;;5056123;28;20197;-65
2023/09/29 00:27:36;;;;;;;3.22;3.03;;;;;;;;;;5056865;28;20205;-65
2023/09/29 00:30:06;;;;;;;3.20;3.00;;;;;;;;;;5060441;28;20654;-65
2023/09/29 00:32:33;;;;;;;2.90;2.70;;;;;;;;;;5059790;28;20205;-65
2023/09/29 00:35:01;;;;;;;3.30;3.10;;;;;;;;;;5060285;28;20545;-65
2023/09/29 00:37:29;;;;;;;2.95;2.75;;;;;;;;;;5060340;28;20208;-65
2023/09/29 00:39:57;;;;;;;3.30;3.10;;;;;;;;;;5060237;28;20232;-65
2023/09/29 00:42:25;;;;;;;3.30;3.10;;;;;;;;;;5060108;28;20240;-65
2023/09/29 00:44:52;;;;;;;3.20;3.00;;;;;;;;;;5059989;28;20209;-65
2023/09/29 00:47:20;;;;;;;3.35;3.15;;;;;;;;;;5060008;28;20259;-65
2023/09/29 00:49:48;;;;;;;3.38;3.08;;;;;;;;;;5060294;28;20231;-65
2023/09/29 00:52:18;;;;;;;3.33;3.10;;;;;;;;;;5059896;28;20627;-65
2023/09/29 00:54:47;;;;;;;3.13;2.92;;;;;;;;;;5059895;28;20212;-65
2023/09/29 00:57:16;;;;;;;3.30;3.03;;;;;;;;;;5059747;28;20204;-65
2023/09/29 00:59:46;;;;;;;3.40;3.20;;;;;;;;;;5059805;28;20229;-65
2023/09/29 01:02:14;;;;;;;3.08;2.88;;;;;;;;;;5059070;28;20248;-65
2023/09/29 01:04:44;;;;;;;3.30;3.10;;;;;;;;;;5059818;28;20547;-65
2023/09/29 01:07:12;;;;;;;3.05;2.85;;;;;;;;;;5059608;28;20204;-65
2023/09/29 01:09:40;;;;;;;3.50;3.28;;;;;;;;;;5060414;28;20489;-65
2023/09/29 01:12:09;;;;;;;2.97;2.78;;;;;;;;;;5059490;28;20265;-65
2023/09/29 01:14:38;;;;;;;3.30;3.10;;;;;;;;;;5059260;28;20205;-65
2023/09/29 01:17:07;;;;;;;3.20;3.00;;;;;;;;;;5060032;28;20599;-65
2023/09/29 01:19:35;;;;;;;3.50;3.30;;;;;;;;;;5059182;28;20235;-65
2023/09/29 01:22:04;;;;;;;3.33;3.10;;;;;;;;;;5059994;28;20272;-65
2023/09/29 01:24:33;;;;;;;3.05;2.85;;;;;;;;;;5059247;28;20197;-65
2023/09/29 01:27:01;;;;;;;3.28;3.08;;;;;;;;;;5059229;28;20296;-65
2023/09/29 01:29:28;;;;;;;3.20;3.00;;;;;;;;;;5059020;28;20205;-65
2023/09/29 01:31:56;;;;;;;3.20;3.00;;;;;;;;;;5059632;28;20666;-65
2023/09/29 01:34:24;;;;;;;3.10;2.90;;;;;;;;;;5058936;28;20291;-65
2023/09/29 01:36:51;;;;;;;3.20;3.00;;;;;;;;;;5058961;28;20304;-65
2023/09/29 01:39:19;;;;;;;3.30;3.10;;;;;;;;;;5058570;28;20219;-65
2023/09/29 01:41:48;;;;;;;3.42;3.20;;;;;;;;;;5059243;28;20575;-65
2023/09/29 01:44:15;;;;;;;3.15;2.95;;;;;;;;;;5058398;28;20255;-65
2023/09/29 01:46:43;;;;;;;3.08;2.88;;;;;;;;;;5058772;28;20213;-65
2023/09/29 01:49:11;;;;;;;3.55;3.25;;;;;;;;;;5059501;28;20205;-65
2023/09/29 01:51:38;;;;;;;3.30;3.00;;;;;;;;;;5058619;28;20295;-65
2023/09/29 01:54:06;;;;;;;2.83;2.63;;;;;;;;;;5058209;28;20205;-65
2023/09/29 01:56:34;;;;;;;3.50;3.30;;;;;;;;;;5058996;28;20215;-65
2023/09/29 01:59:03;;;;;;;2.97;2.78;;;;;;;;;;5058796;28;20205;-65
2023/09/29 02:01:34;;;;;;;3.05;2.85;;;;;;;;;;5058956;28;20232;-65
2023/09/29 02:04:01;;;;;;;3.08;2.88;;;;;;;;;;5059209;28;20209;-65
2023/09/29 02:06:29;;;;;;;3.38;3.17;;;;;;;;;;5058181;28;20267;-65
2023/09/29 02:08:57;;;;;;;3.47;3.28;;;;;;;;;;5058704;28;20316;-65
2023/09/29 02:11:25;;;;;;;3.35;3.08;;;;;;;;;;5058642;28;20315;-65
2023/09/29 02:13:52;;;;;;;3.35;3.15;;;;;;;;;;5058489;28;20205;-65
2023/09/29 02:16:21;;;;;;;3.55;3.25;;;;;;;;;;5057725;28;20205;-65
2023/09/29 02:18:49;;;;;;;3.53;3.22;;;;;;;;;;5058356;28;20232;-65
2023/09/29 02:21:22;;;;;;;3.20;3.00;;;;;;;;;;5057784;28;20225;-65
2023/09/29 02:23:50;;;;;;;3.70;3.47;;;;;;;;;;5058198;28;20213;-65
2023/09/29 02:26:17;;;;;;;3.28;3.08;;;;;;;;;;5058591;28;20205;-65
2023/09/29 02:28:44;;;;;;;3.25;3.05;;;;;;;;;;5057920;28;20240;-65
2023/09/29 02:31:15;;;;;;;3.30;3.10;;;;;;;;;;5057935;28;20267;-65
2023/09/29 02:33:44;;;;;;;3.40;3.15;;;;;;;;;;5057694;28;20237;-65
2023/09/29 02:36:12;;;;;;;3.20;3.00;;;;;;;;;;5058006;28;20213;-65
2023/09/29 02:38:39;;;;;;;3.42;3.22;;;;;;;;;;5058182;28;20205;-65
2023/09/29 02:41:07;;;;;;;3.40;3.20;;;;;;;;;;5057476;28;20487;-65
2023/09/29 02:43:35;;;;;;;3.17;2.97;;;;;;;;;;5057866;28;20243;-65
2023/09/29 02:46:03;;;;;;;3.38;3.17;;;;;;;;;;5057157;28;20689;-65
2023/09/29 02:48:30;;;;;;;3.35;3.15;;;;;;;;;;5057545;28;20235;-65
2023/09/29 02:50:59;;;;;;;3.70;3.40;;;;;;;;;;5056321;28;20266;-65
2023/09/29 02:53:27;;;;;;;3.17;2.97;;;;;;;;;;5057589;28;20205;-65
2023/09/29 02:55:54;;;;;;;3.45;3.20;;;;;;;;;;5057549;28;20287;-65
2023/09/29 02:58:22;;;;;;;3.50;3.30;;;;;;;;;;5057714;28;20594;-65
2023/09/29 03:00:50;;;;;;;3.15;2.95;;;;;;;;;;5057464;28;20239;-65
2023/09/29 03:03:18;;;;;;;3.65;3.35;;;;;;;;;;5057423;28;20209;-65
2023/09/29 03:05:46;;;;;;;3.40;3.10;;;;;;;;;;5056949;28;20204;-65
2023/09/29 03:08:15;;;;;;;3.10;2.90;;;;;;;;;;5057475;28;20265;-65
2023/09/29 03:10:43;;;;;;;3.38;3.15;;;;;;;;;;5057421;28;20227;-65
2023/09/29 03:13:11;;;;;;;3.10;2.90;;;;;;;;;;5057068;28;20279;-65
2023/09/29 03:15:40;;;;;;;3.47;3.28;;;;;;;;;;5056612;28;20288;-65
2023/09/29 03:18:07;;;;;;;3.60;3.33;;;;;;;;;;5056778;28;20201;-65
2023/09/29 03:20:35;;;;;;;3.55;3.35;;;;;;;;;;5056299;28;20236;-65
2023/09/29 03:23:04;;;;;;;3.30;3.10;;;;;;;;;;5056054;28;20637;-65
2023/09/29 03:25:33;;;;;;;3.38;3.17;;;;;;;;;;5056250;28;20213;-65
2023/09/29 03:28:00;;;;;;;3.25;2.95;;;;;;;;;;5056065;28;20204;-65
2023/09/29 03:30:28;;;;;;;3.03;2.83;;;;;;;;;;5056291;28;20209;-65
2023/09/29 03:32:55;;;;;;;3.33;3.03;;;;;;;;;;5055824;28;20314;-65
2023/09/29 03:35:23;;;;;;;3.25;3.05;;;;;;;;;;5055965;28;20209;-65
2023/09/29 03:37:51;;;;;;;3.42;3.20;;;;;;;;;;5056076;28;20213;-65
2023/09/29 03:40:19;;;;;;;3.28;3.08;;;;;;;;;;5056238;28;20615;-65
2023/09/29 03:42:48;;;;;;;3.08;2.88;;;;;;;;;;5056088;28;20251;-65
2023/09/29 03:45:15;;;;;;;3.65;3.35;;;;;;;;;;5056356;28;20204;-65
2023/09/29 03:47:43;;;;;;;3.55;3.28;;;;;;;;;;5056446;28;20231;-65
2023/09/29 03:50:11;;;;;;;3.47;3.17;;;;;;;;;;5056196;28;20287;-65
2023/09/29 03:52:39;;;;;;;3.38;3.17;;;;;;;;;;5056171;28;20303;-65
2023/09/29 03:55:09;;;;;;;3.40;3.20;;;;;;;;;;5056217;28;20248;-65
2023/09/29 03:57:38;;;;;;;3.42;3.22;;;;;;;;;;5055911;28;20310;-65
2023/09/29 04:00:12;;;;;;;3.72;3.42;;;;;;;;;;5055952;28;20211;-65
2023/09/29 04:02:39;;;;;;;3.60;3.30;;;;;;;;;;5059652;28;20541;-65
2023/09/29 04:05:07;;;;;;;3.63;3.42;;;;;;;;;;5062972;28;20220;-65
2023/09/29 04:07:36;;;;;;;3.60;3.30;;;;;;;;;;5061981;28;20204;-65
2023/09/29 04:10:05;;;;;;;3.20;3.00;;;;;;;;;;5061993;28;20216;-65
2023/09/29 04:12:32;;;;;;;3.50;3.20;;;;;;;;;;5061949;28;20582;-65
2023/09/29 04:15:00;;;;;;;3.13;2.92;;;;;;;;;;5062445;28;20230;-65
2023/09/29 04:17:29;;;;;;;3.80;3.50;;;;;;;;;;5062206;28;20302;-65
2023/09/29 04:19:57;;;;;;;3.75;3.45;;;;;;;;;;5062038;28;20205;-65
2023/09/29 04:22:24;;;;;;;3.45;3.15;;;;;;;;;;5061875;28;20311;-65
2023/09/29 04:24:52;;;;;;;3.40;3.20;;;;;;;;;;5062252;28;20550;-65
2023/09/29 04:27:19;;;;;;;3.60;3.40;;;;;;;;;;5062355;28;20205;-65
2023/09/29 04:29:47;;;;;;;3.33;3.13;;;;;;;;;;5061814;28;20247;-65
2023/09/29 04:32:14;;;;;;;3.42;3.20;;;;;;;;;;5062145;28;20208;-65
2023/09/29 04:34:43;;;;;;;3.40;3.20;;;;;;;;;;5062098;28;20602;-65
2023/09/29 04:37:11;;;;;;;3.53;3.33;;;;;;;;;;5063064;28;20555;-65
2023/09/29 04:39:38;;;;;;;3.53;3.33;;;;;;;;;;5062944;28;20307;-65
2023/09/29 04:42:06;;;;;;;3.60;3.40;;;;;;;;;;5062732;28;20225;-65
2023/09/29 04:44:34;;;;;;;3.30;3.10;;;;;;;;;;5062688;28;20284;-65
2023/09/29 04:47:01;;;;;;;3.47;3.28;;;;;;;;;;5061436;28;20603;-65
2023/09/29 04:49:28;;;;;;;3.40;3.20;;;;;;;;;;5061247;28;20205;-65
2023/09/29 04:51:57;;;;;;;4.10;3.80;;;;;;;;;;5061468;28;20283;-65
2023/09/29 04:54:25;;;;;;;3.92;3.63;;;;;;;;;;5062006;28;20552;-65
2023/09/29 04:56:53;;;;;;;3.80;3.50;;;;;;;;;;5061812;28;20248;-65
2023/09/29 04:59:20;;;;;;;3.28;3.08;;;;;;;;;;5061589;28;20270;-65
2023/09/29 05:01:47;;;;;;;2.85;2.65;;;;;;;;;;5061079;28;20255;-65
2023/09/29 05:04:15;;;;;;;3.88;3.50;;;;;;;;;;5061806;28;20301;-65
2023/09/29 05:06:43;;;;;;;3.40;3.20;;;;;;;;;;5061040;28;20292;-65
2023/09/29 05:09:12;;;;;;;3.20;3.00;;;;;;;;;;5060479;28;20212;-65
2023/09/29 05:11:39;;;;;;;3.50;3.30;;;;;;;;;;5059975;28;20203;-65
2023/09/29 05:14:07;;;;;;;3.45;3.20;;;;;;;;;;5057604;28;20201;-65
2023/09/29 05:16:34;;;;;;;3.45;3.25;;;;;;;;;;5058074;28;20205;-65
2023/09/29 05:19:02;;;;;;;3.90;3.60;;;;;;;;;;5057448;28;20208;-65
2023/09/29 05:21:29;;;;;;;3.50;3.30;;;;;;;;;;5057673;28;20320;-65
2023/09/29 05:23:57;;;;;;;3.78;3.50;;;;;;;;;;5058157;28;20240;-65
2023/09/29 05:26:27;;;;;;;3.70;3.40;;;;;;;;;;5057319;28;20208;-65
2023/09/29 05:28:55;;;;;;;3.58;3.38;;;;;;;;;;5057439;28;20205;-65
2023/09/29 05:31:23;;;;;;;3.70;3.40;;;;;;;;;;5057953;28;20213;-65
2023/09/29 05:33:53;;;;;;;3.50;3.22;;;;;;;;;;5057603;28;20323;-65
2023/09/29 05:36:21;;;;;;;3.70;3.40;;;;;;;;;;5056989;28;20201;-65
2023/09/29 05:38:50;;;;;;;3.60;3.40;;;;;;;;;;5057303;28;20205;-65
2023/09/29 05:41:17;;;;;;;3.63;3.35;;;;;;;;;;5056374;28;20260;-66
2023/09/29 05:43:46;;;;;;;3.67;3.45;;;;;;;;;;5056553;28;20672;-65
2023/09/29 05:46:13;;;;;;;3.72;3.50;;;;;;;;;;5056992;28;20568;-65
2023/09/29 05:48:41;;;;;;;3.40;3.20;;;;;;;;;;5057304;28;20201;-65
2023/09/29 05:51:08;;;;;;;3.30;3.10;;;;;;;;;;5057736;28;20677;-65
2023/09/29 05:53:37;;;;;;;3.40;3.20;;;;;;;;;;5057289;28;20288;-65
2023/09/29 05:56:09;;;;;;;3.30;3.10;;;;;;;;;;5056549;28;20310;-65
2023/09/29 05:58:37;;;;;;;3.83;3.53;;;;;;;;;;5057480;28;20220;-65
2023/09/29 06:01:10;;;;;;;3.38;3.17;;;;;;;;;;5057400;28;20335;-65
2023/09/29 06:03:38;;;;;;;3.92;3.63;;;;;;;;;;5056871;28;20215;-65
2023/09/29 06:06:06;;;;;;;3.75;3.53;;;;;;;;;;5055960;28;20692;-65
2023/09/29 06:08:33;;;;;;;3.40;3.20;;;;;;;;;;5056234;28;20254;-65
2023/09/29 06:11:01;;;;;;;3.22;3.03;;;;;;;;;;5057264;28;20201;-65
2023/09/29 06:13:28;;;;;;;3.75;3.47;;;;;;;;;;5056451;28;20277;-65
2023/09/29 06:15:57;;;;;;;3.40;3.20;;;;;;;;;;5057193;28;20271;-65
2023/09/29 06:18:27;;;;;;;3.20;3.00;;;;;;;;;;5056356;28;20209;-65
2023/09/29 06:20:54;;;;;;;3.70;3.40;;;;;;;;;;5056652;28;20669;-65
2023/09/29 06:23:22;;;;;;;3.67;3.38;;;;;;;;;;5057364;28;20283;-65
2023/09/29 06:25:57;;;;;;;3.40;3.20;;;;;;;;;;5054812;28;20287;-65
2023/09/29 06:28:24;;;;;;;3.40;3.20;;;;;;;;;;5057291;28;20571;-65
2023/09/29 06:30:53;;;;;;;3.72;3.42;;;;;;;;;;5057636;28;20205;-65
2023/09/29 06:33:21;;;;;;;3.47;3.28;;;;;;;;;;5056255;28;20774;-65
2023/09/29 06:35:49;;;;;;;3.20;3.00;;;;;;;;;;5056876;28;20205;-65
2023/09/29 06:38:17;;;;;;;3.60;3.30;;;;;;;;;;5056147;28;20307;-65
2023/09/29 06:40:44;;;;;;;3.25;3.05;;;;;;;;;;5056798;28;20236;-65
2023/09/29 06:43:12;;;;;;;3.80;3.50;;;;;;;;;;5056730;28;20693;-65
2023/09/29 06:45:40;;;;;;;3.90;3.60;;;;;;;;;;5057102;28;20209;-65
2023/09/29 06:48:07;;;;;;;3.50;3.30;;;;;;;;;;5055897;28;20562;-65
2023/09/29 06:50:35;;;;;;;3.55;3.25;;;;;;;;;;5056639;28;20602;-65
2023/09/29 06:53:04;;;;;;;3.10;2.90;;;;;;;;;;5056358;28;20201;-65
2023/09/29 06:55:31;;;;;;;3.80;3.50;;;;;;;;;;5056315;28;20651;-65
2023/09/29 06:57:59;;;;;;;3.75;3.45;;;;;;;;;;5056412;28;20240;-65
2023/09/29 07:00:27;;;;;;;5.25;3.55;;;;;;;;;;5055814;28;20204;-65
2023/09/29 07:02:54;;;;;;;3.35;3.15;;;;;;;;;;5056895;28;20667;-65
2023/09/29 07:05:22;;;;;;;3.70;3.40;;;;;;;;;;5056303;28;20248;-65
2023/09/29 07:07:49;;;;;;;3.65;3.35;;;;;;;;;;5055536;28;20286;-65
2023/09/29 07:10:18;;;;;;;3.45;3.15;;;;;;;;;;5056111;28;20200;-64
2023/09/29 07:12:46;;;;;;;3.42;3.13;;;;;;;;;;5055560;28;20299;-64
2023/09/29 07:15:14;;;;;;;3.40;3.10;;;;;;;;;;5054466;28;20276;-64
2023/09/29 07:17:41;;;;;;;3.50;3.30;;;;;;;;;;5055329;28;20308;-64
2023/09/29 07:20:09;;;;;;;3.28;2.97;;;;;;;;;;5055775;28;20241;-64
2023/09/29 07:22:37;;;;;;;3.50;3.20;;;;;;;;;;5054920;28;20323;-64
2023/09/29 07:25:04;;;;;;;3.08;2.88;;;;;;;;;;5055284;28;20232;-64
2023/09/29 07:27:35;;;;;;;3.20;3.00;;;;;;;;;;5055527;28;20204;-64
2023/09/29 07:30:03;;;;;;;3.58;3.08;;;;;;;;;;5055927;28;20205;-64
2023/09/29 07:32:31;;;;;;;3.20;2.90;;;;;;;;;;5055321;28;20298;-64
2023/09/29 07:34:58;;;;;;;3.30;3.10;;;;;;;;;;5055441;28;20292;-64
2023/09/29 07:37:26;;;;;;;3.97;2.75;;;;;;;;;;5054849;28;20205;-64
2023/09/29 07:39:53;;;;;;;3.13;2.92;;;;;;;;;;5055258;28;20201;-64
2023/09/29 07:42:21;;;;;;;3.00;2.80;;;;;;;;;;5054520;28;20251;-64
2023/09/29 07:44:50;;;;;;;3.40;3.15;;;;;;;;;;5054807;28;20296;-64
2023/09/29 07:47:17;;;;;;;3.30;3.10;;;;;;;;;;5055159;28;20656;-64
2023/09/29 07:49:45;;;;;;;3.55;3.22;;;;;;;;;;5054361;28;20541;-64
2023/09/29 07:52:12;;;;;;;3.88;3.33;;;;;;;;;;5054529;28;20295;-64
2023/09/29 07:54:40;;;;;;;3.67;3.33;;;;;;;;;;5055300;28;20208;-65
2023/09/29 07:57:08;;;;;;;3.55;3.35;;;;;;;;;;5054452;28;20205;-64
2023/09/29 07:59:35;;;;;;;3.42;3.22;;;;;;;;;;5054651;28;20586;-64
2023/09/29 08:02:04;;;;;;;3.40;3.20;;;;;;;;;;5054240;28;20224;-64
2023/09/29 08:04:32;;;;;;;3.50;3.30;;;;;;;;;;5054763;28;20251;-64
2023/09/29 08:07:01;;;;;;;3.42;3.13;;;;;;;;;;5054827;28;20247;-65
2023/09/29 08:09:28;;;;;;;3.70;3.40;;;;;;;;;;5054283;28;20215;-64
2023/09/29 08:11:57;;;;;;;3.30;3.10;;;;;;;;;;5054396;28;20270;-64
2023/09/29 08:14:24;;;;;;;4.22;3.50;;;;;;;;;;5054538;28;20201;-64
2023/09/29 08:16:52;;;;;;;3.53;3.22;;;;;;;;;;5053680;28;20262;-64
2023/09/29 08:19:21;;;;;;;4.05;3.63;;;;;;;;;;5054721;28;20205;-64
2023/09/29 08:21:49;;;;;;;3.88;3.58;;;;;;;;;;5054331;28;20832;-64
2023/09/29 08:24:17;;;;;;;3.70;3.42;;;;;;;;;;5053459;28;20197;-64
2023/09/29 08:26:44;;;;;;;3.92;3.58;;;;;;;;;;5054416;28;20295;-65
2023/09/29 08:29:15;;;;;;;4.18;3.83;;;;;;;;;;5055340;28;20205;-64
2023/09/29 08:31:43;;;;;;;4.57;4.18;;;;;;;;;;5053607;28;20244;-64
2023/09/29 08:34:11;;;;;;;3.80;3.50;;;;;;;;;;5053814;28;20874;-64
2023/09/29 08:36:39;;;;;;;3.80;3.50;;;;;;;;;;5054030;28;20304;-64
2023/09/29 08:39:07;;;;;;;5.22;3.63;;;;;;;;;;5053381;28;20266;-64
2023/09/29 08:41:35;;;;;;;4.00;3.70;;;;;;;;;;5053104;28;20203;-64
2023/09/29 08:44:04;;;;;;;3.95;3.55;;;;;;;;;;5053618;28;20548;-64
2023/09/29 08:46:35;;;;;;;5.00;3.60;;;;;;;;;;5053546;28;20208;-64
2023/09/29 08:49:04;;;;;;;4.35;3.70;;;;;;;;;;5054707;28;20652;-64
2023/09/29 08:51:33;;;;;;;4.25;3.80;;;;;;;;;;5056997;28;20201;-64
2023/09/29 08:54:02;;;;;;;4.18;3.65;;;;;;;;;;5058247;28;20197;-64
2023/09/29 08:56:30;;;;;;;4.20;3.90;;;;;;;;;;5057651;28;20209;-64
2023/09/29 08:58:59;;;;;;;4.40;4.00;;;;;;;;;;5057566;28;20201;-64
2023/09/29 09:01:26;;;;;;;4.80;4.30;;;;;;;;;;5058745;28;20291;-64
2023/09/29 09:03:54;;;;;;;3.90;3.60;;;;;;;;;;5058438;28;20529;-64
2023/09/29 09:06:23;;;;;;;4.50;4.10;;;;;;;;;;5058346;28;20204;-64
2023/09/29 09:08:51;;;;;;;4.68;4.28;;;;;;;;;;5057847;28;20267;-64
2023/09/29 09:11:21;;;;;;;4.10;3.70;;;;;;;;;;5056307;28;20211;-64
2023/09/29 09:13:58;;;;;;;4.60;4.20;;;;;;;;;;5057802;28;20296;-64
2023/09/29 09:16:27;;;;;;;5.40;3.90;;;;;;;;;;5057396;28;20205;-64
2023/09/29 09:18:54;;;;;;;4.53;4.13;;;;;;;;;;5056952;28;20205;-64
2023/09/29 09:21:22;;;;;;;4.38;3.97;;;;;;;;;;5057858;28;20200;-64
2023/09/29 09:23:49;;;;;;;3.90;3.60;;;;;;;;;;5057167;28;20320;-64
2023/09/29 09:26:17;;;;;;;4.28;3.88;;;;;;;;;;5056079;28;20248;-64
2023/09/29 09:28:48;;;;;;;4.32;4.00;;;;;;;;;;5056193;28;20205;-64
2023/09/29 09:31:16;;;;;;;4.47;4.07;;;;;;;;;;5037124;28;20206;-64
2023/09/29 09:33:49;;;;;;;4.13;3.80;;;;;;;;;;5036693;28;20752;-64
2023/09/29 09:36:17;;;;;;;4.28;3.88;;;;;;;;;;5036440;28;20216;-64
2023/09/29 09:38:47;;;;;;;5.35;3.90;;;;;;;;;;5036180;28;20206;-64
2023/09/29 09:41:16;;;;;;;4.05;3.65;;;;;;;;;;5036328;28;20265;-64
2023/09/29 09:43:44;;;;;;;3.78;3.55;;;;;;;;;;5036228;28;20222;-64
2023/09/29 09:46:14;;;;;;;3.85;3.55;;;;;;;;;;5036377;28;20204;-64
2023/09/29 09:48:49;;;;;;;3.95;3.60;;;;;;;;;;5036812;28;20201;-64
2023/09/29 09:51:23;;;;;;;4.28;3.97;;;;;;;;;;5037126;28;20216;-64
2023/09/29 09:53:50;;;;;;;4.05;3.75;;;;;;;;;;5036564;28;20293;-64
2023/09/29 09:56:21;;;;;;;3.92;3.63;;;;;;;;;;5035877;28;20205;-64
2023/09/29 09:58:52;;;;;;;4.00;3.70;;;;;;;;;;5035416;28;20213;-64
2023/09/29 10:01:21;;;;;;;4.00;3.70;;;;;;;;;;5036484;28;20537;-65
2023/09/29 10:03:49;;;;;;;4.00;3.70;;;;;;;;;;5035508;28;20237;-64
2023/09/29 10:06:16;;;;;;;3.72;3.42;;;;;;;;;;5036000;28;20292;-64
2023/09/29 10:08:46;;;;;;;3.58;3.28;;;;;;;;;;5036330;28;20229;-64
2023/09/29 10:11:14;;;;;;;3.85;3.42;;;;;;;;;;5035661;28;20206;-64
2023/09/29 10:13:44;;;;;;;4.30;3.75;;;;;;;;;;5035751;28;20221;-65
2023/09/29 10:16:23;;;;;;;3.75;3.45;;;;;;;;;;5035550;28;20213;-65
2023/09/29 10:18:58;;;;;;;3.50;3.10;;;;;;;;;;5036017;28;20290;-65
2023/09/29 10:21:25;;;;;;;3.70;3.40;;;;;;;;;;5035863;28;20467;-65
2023/09/29 10:23:53;;;;;;;3.63;3.38;;;;;;;;;;5035859;28;20823;-65
2023/09/29 10:26:20;;;;;;;3.42;3.20;;;;;;;;;;5036331;28;20206;-64
2023/09/29 10:28:48;;;;;;;3.72;3.30;;;;;;;;;;5035263;28;20205;-64
2023/09/29 10:31:17;;;;;;;3.65;3.35;;;;;;;;;;5035609;28;20299;-64
2023/09/29 10:33:53;;;;;;;3.83;3.53;;;;;;;;;;5035683;28;20608;-65
2023/09/29 10:36:21;;;;;;;3.50;3.17;;;;;;;;;;5035769;28;20301;-65
2023/09/29 10:38:48;;;;;;;3.42;3.13;;;;;;;;;;5034961;28;20300;-65
2023/09/29 10:41:18;;;;;;;3.50;3.20;;;;;;;;;;5034855;28;20817;-65
2023/09/29 10:43:48;;;;;;;3.45;3.15;;;;;;;;;;5034943;28;20256;-65
2023/09/29 10:46:16;;;;;;;3.60;3.30;;;;;;;;;;5035934;28;20292;-64
2023/09/29 10:48:47;;;;;;;3.40;3.15;;;;;;;;;;5035598;28;20769;-64
2023/09/29 10:51:23;;;;;;;3.17;2.97;;;;;;;;;;5034857;28;20237;-64
2023/09/29 10:53:51;;;;;;;3.80;3.38;;;;;;;;;;5034129;28;20695;-64
2023/09/29 10:56:20;;;;;;;3.38;3.08;;;;;;;;;;5034804;28;20206;-64
2023/09/29 10:58:48;;;;;;;3.50;3.20;;;;;;;;;;5034190;28;20202;-64
2023/09/29 11:01:21;;;;;;;3.75;3.45;;;;;;;;;;5035211;28;20451;-64
2023/09/29 11:03:50;;;;;;;3.63;3.33;;;;;;;;;;5034530;28;20426;-64
2023/09/29 11:06:20;;;;;;;3.67;3.38;;;;;;;;;;5035360;28;20521;-64
2023/09/29 11:08:54;;;;;;;3.78;3.45;;;;;;;;;;5034811;28;20233;-64
2023/09/29 11:11:22;;;;;;;4.10;3.67;;;;;;;;;;5032736;28;20197;-64
2023/09/29 11:13:56;;;;;;;3.90;3.65;;;;;;;;;;5034911;28;20300;-64
2023/09/29 11:16:27;;;;;;;3.95;3.65;;;;;;;;;;5035370;28;20275;-64
2023/09/29 11:18:56;;;;;;;3.88;3.47;;;;;;;;;;5035221;28;20271;-64
2023/09/29 11:21:33;;;;;;;3.83;3.53;;;;;;;;;;5034455;28;20643;-65
2023/09/29 11:24:05;;;;;;;3.72;3.42;;;;;;;;;;5033514;28;20323;-65
2023/09/29 11:26:32;;;;;;;3.80;3.50;;;;;;;;;;5035208;28;20614;-65
2023/09/29 11:29:00;;;;;;;4.18;3.75;;;;;;;;;;5033509;28;20293;-65
2023/09/29 11:31:28;;;;;;;3.72;3.42;;;;;;;;;;5034269;28;20830;-65
2023/09/29 11:33:56;;;;;;;3.88;3.58;;;;;;;;;;5034307;28;20324;-64
2023/09/29 11:36:27;;;;;;;3.78;3.38;;;;;;;;;;5034223;28;20540;-64
2023/09/29 11:38:55;;;;;;;3.95;3.65;;;;;;;;;;5033977;28;20205;-64
2023/09/29 11:41:24;;;;;;;4.45;3.72;;;;;;;;;;5034467;28;20607;-64
2023/09/29 11:43:51;;;;;;;4.10;3.80;;;;;;;;;;5033688;28;20740;-64
2023/09/29 11:46:20;;;;;;;4.00;3.55;;;;;;;;;;5036869;28;20797;-64
2023/09/29 11:48:48;;;;;;;4.18;3.75;;;;;;;;;;5053701;28;20559;-64
2023/09/29 11:51:15;;;;;;;3.92;3.63;;;;;;;;;;5053195;28;20252;-64
2023/09/29 11:53:43;;;;;;;3.85;3.55;;;;;;;;;;5053621;28;20212;-64
2023/09/29 11:56:12;;;;;;;4.40;4.00;;;;;;;;;;5054052;28;20483;-64
2023/09/29 11:58:41;;;;;;;4.30;3.90;;;;;;;;;;5053752;28;20212;-64
2023/09/29 12:01:09;;;;;;;4.20;3.88;;;;;;;;;;5053008;28;20212;-64
2023/09/29 12:03:37;;;;;;;4.25;3.85;;;;;;;;;;5052713;28;20235;-64
2023/09/29 12:06:04;;;;;;;4.05;3.75;;;;;;;;;;5053471;28;20236;-64
2023/09/29 12:08:32;;;;;;;4.68;3.65;;;;;;;;;;5053845;28;20330;-64
2023/09/29 12:11:00;;;;;;;4.40;4.05;;;;;;;;;;5054488;28;20524;-64
2023/09/29 12:13:29;;;;;;;4.18;3.80;;;;;;;;;;5052893;28;20292;-64
2023/09/29 12:15:58;;;;;;;3.95;3.65;;;;;;;;;;5053737;28;20645;-64
2023/09/29 12:18:26;;;;;;;4.00;3.70;;;;;;;;;;5053500;28;20288;-64
2023/09/29 12:20:55;;;;;;;4.50;4.10;;;;;;;;;;5053319;28;20259;-64
2023/09/29 12:23:23;;;;;;;3.70;3.40;;;;;;;;;;5055306;28;20228;-64
2023/09/29 12:25:50;;;;;;;4.10;3.80;;;;;;;;;;5057851;28;20311;-64
2023/09/29 12:28:19;;;;;;;4.20;3.80;;;;;;;;;;5057584;28;20300;-65
2023/09/29 12:30:47;;;;;;;4.18;3.88;;;;;;;;;;5058043;28;20204;-65
2023/09/29 12:33:16;;;;;;;4.13;3.83;;;;;;;;;;5057982;28;20335;-65
2023/09/29 12:35:43;;;;;;;3.85;3.55;;;;;;;;;;5057969;28;20307;-65
2023/09/29 12:38:11;;;;;;;3.90;3.60;;;;;;;;;;5057216;28;20304;-64
2023/09/29 12:40:39;;;;;;;3.97;3.67;;;;;;;;;;5056985;28;20767;-65
2023/09/29 12:43:06;;;;;;;4.00;3.70;;;;;;;;;;5056467;28;20225;-65
2023/09/29 12:45:35;;;;;;;3.83;3.53;;;;;;;;;;5057034;28;20278;-65
2023/09/29 12:48:03;;;;;;;3.78;3.47;;;;;;;;;;5057105;28;20494;-65
2023/09/29 12:50:38;;;;;;;3.55;3.25;;;;;;;;;;5056431;28;20576;-65
2023/09/29 12:53:06;;;;;;;3.67;3.38;;;;;;;;;;5056247;28;20196;-65
2023/09/29 12:55:33;;;;;;;3.45;3.15;;;;;;;;;;5057438;28;20231;-65
2023/09/29 12:58:05;;;;;;;3.03;2.83;;;;;;;;;;5056589;28;20270;-65
2023/09/29 13:00:34;;;;;;;3.35;2.85;;;;;;;;;;5057202;28;20524;-65
2023/09/29 13:03:04;;;;;;;2.75;2.55;;;;;;;;;;5056160;28;20288;-65
2023/09/29 13:05:35;;;;;;;2.95;2.75;;;;;;;;;;5055884;28;20286;-64
2023/09/29 13:08:04;;;;;;;3.15;2.88;;;;;;;;;;5056747;28;20208;-64
2023/09/29 13:10:32;;;;;;;2.90;2.70;;;;;;;;;;5057425;28;20215;-64
2023/09/29 13:13:03;;;;;;;3.00;2.80;;;;;;;;;;5057226;28;20212;-65
2023/09/29 13:15:31;;;;;;;3.08;2.60;;;;;;;;;;5057027;28;20205;-65
2023/09/29 13:17:58;;;;;;;3.00;2.70;;;;;;;;;;5056260;28;20209;-65
2023/09/29 13:20:26;;;;;;;3.83;2.67;;;;;;;;;;5057785;28;20213;-65
2023/09/29 13:22:55;;;;;;;2.78;2.55;;;;;;;;;;5057232;28;20493;-65
2023/09/29 13:25:22;;;;;;;3.22;2.85;;;;;;;;;;5057005;28;20321;-65
2023/09/29 13:27:49;;;;;;;2.88;2.53;;;;;;;;;;5056754;28;20270;-65
2023/09/29 13:30:18;;;;;;;3.08;2.78;;;;;;;;;;5056899;28;20327;-65
2023/09/29 13:32:46;;;;;;;2.97;2.60;;;;;;;;;;5055516;28;20306;-65
2023/09/29 13:35:13;;;;;;;2.78;2.58;;;;;;;;;;5055193;28;20300;-65
2023/09/29 13:37:41;;;;;;;3.13;2.60;;;;;;;;;;5055225;28;20228;-65
2023/09/29 13:40:11;;;;;;;3.17;2.72;;;;;;;;;;5055114;28;20274;-65
2023/09/29 13:42:39;;;;;;;4.70;2.70;;;;;;;;;;5055866;28;20209;-65
2023/09/29 13:45:07;;;;;;;2.65;2.45;;;;;;;;;;5056081;28;20629;-65
2023/09/29 13:47:34;;;;;;;3.90;2.63;;;;;;;;;;5056520;28;20296;-65
2023/09/29 13:50:03;;;;;;;3.30;2.50;;;;;;;;;;5055989;28;20304;-65
2023/09/29 13:52:30;;;;;;;2.58;2.38;;;;;;;;;;5056899;28;20240;-65
2023/09/29 13:54:58;;;;;;;2.65;2.45;;;;;;;;;;5056282;28;20201;-65
2023/09/29 13:57:27;;;;;;;3.08;2.60;;;;;;;;;;5056452;28;20309;-65
2023/09/29 13:59:55;;;;;;;2.70;2.47;;;;;;;;;;5056379;28;20278;-65
2023/09/29 14:02:22;;;;;;;3.22;2.67;;;;;;;;;;5055828;28;20296;-65
2023/09/29 14:04:50;;;;;;;2.50;2.30;;;;;;;;;;5056445;28;20322;-65
2023/09/29 14:07:17;;;;;;;2.78;2.58;;;;;;;;;;5056397;28;20205;-65
2023/09/29 14:09:45;;;;;;;2.60;2.40;;;;;;;;;;5055964;28;20650;-65
2023/09/29 14:12:12;;;;;;;2.78;2.50;;;;;;;;;;5055184;28;20330;-65
2023/09/29 14:14:43;;;;;;;2.88;2.65;;;;;;;;;;5056326;28;20528;-65
2023/09/29 14:17:10;;;;;;;3.08;2.88;;;;;;;;;;5055869;28;20657;-64
2023/09/29 14:19:37;;;;;;;3.22;2.80;;;;;;;;;;5055317;28;20205;-64
2023/09/29 14:22:05;;;;;;;2.75;2.55;;;;;;;;;;5055363;28;20200;-64
2023/09/29 14:24:33;;;;;;;2.65;2.45;;;;;;;;;;5054628;28;20288;-64
2023/09/29 14:27:00;;;;;;;2.95;2.75;;;;;;;;;;5055341;28;20219;-64
2023/09/29 14:29:27;;;;;;;2.92;2.72;;;;;;;;;;5054442;28;20205;-65
2023/09/29 14:31:56;;;;;;;2.90;2.70;;;;;;;;;;5056220;28;20259;-65
2023/09/29 14:34:24;;;;;;;2.80;2.60;;;;;;;;;;5054987;28;20286;-65
2023/09/29 14:36:51;;;;;;;2.75;2.55;;;;;;;;;;5055964;28;20571;-65
2023/09/29 14:39:19;;;;;;;3.03;2.72;;;;;;;;;;5055339;28;20204;-65
2023/09/29 14:41:48;;;;;;;2.60;2.40;;;;;;;;;;5055757;28;20216;-65
2023/09/29 14:44:16;;;;;;;3.00;2.80;;;;;;;;;;5055863;28;20232;-65
2023/09/29 14:46:43;;;;;;;3.13;2.72;;;;;;;;;;5053898;28;20196;-65
2023/09/29 14:49:13;;;;;;;2.85;2.50;;;;;;;;;;5054187;28;20227;-65